sensor_id;sensor_type;location;lat;lon;timestamp;P1;durP1;ratioP1;P2;durP2;ratioP2
47896;SDS011;39629;51.400;5.494;2023-05-01T00:02:56;3.83;;;1.80;;
47896;SDS011;39629;51.400;5.494;2023-05-01T00:07:57;4.50;;;1.70;;
47896;SDS011;39629;51.400;5.494;2023-05-01T00:13:00;5.25;;;2.10;;
47896;SDS011;39629;51.400;5.494;2023-05-01T00:18:02;3.10;;;1.60;;
47896;SDS011;39629;51.400;5.494;2023-05-01T00:23:04;4.97;;;1.60;;
47896;SDS011;39629;51.400;5.494;2023-05-01T00:28:07;2.97;;;1.90;;
47896;SDS011;39629;51.400;5.494;2023-05-01T00:33:09;2.75;;;1.65;;
47896;SDS011;39629;51.400;5.494;2023-05-01T00:38:10;3.95;;;1.92;;
47896;SDS011;39629;51.400;5.494;2023-05-01T00:43:13;4.40;;;1.88;;
47896;SDS011;39629;51.400;5.494;2023-05-01T00:48:15;3.22;;;1.80;;
47896;SDS011;39629;51.400;5.494;2023-05-01T00:53:17;4.07;;;1.60;;
47896;SDS011;39629;51.400;5.494;2023-05-01T00:58:20;4.00;;;1.88;;
47896;SDS011;39629;51.400;5.494;2023-05-01T01:03:22;5.13;;;1.90;;
47896;SDS011;39629;51.400;5.494;2023-05-01T01:08:25;3.05;;;1.75;;
47896;SDS011;39629;51.400;5.494;2023-05-01T01:13:32;4.13;;;1.90;;
47896;SDS011;39629;51.400;5.494;2023-05-01T01:18:40;4.25;;;1.70;;
47896;SDS011;39629;51.400;5.494;2023-05-01T01:34:59;5.70;;;2.00;;
47896;SDS011;39629;51.400;5.494;2023-05-01T01:40:05;3.45;;;2.10;;
47896;SDS011;39629;51.400;5.494;2023-05-01T01:45:14;6.05;;;2.13;;
47896;SDS011;39629;51.400;5.494;2023-05-01T01:50:23;3.15;;;1.70;;
47896;SDS011;39629;51.400;5.494;2023-05-01T01:55:28;5.20;;;2.20;;
47896;SDS011;39629;51.400;5.494;2023-05-01T02:05:37;5.95;;;2.10;;
47896;SDS011;39629;51.400;5.494;2023-05-01T02:10:41;3.90;;;2.17;;
47896;SDS011;39629;51.400;5.494;2023-05-01T02:15:45;6.13;;;2.50;;
47896;SDS011;39629;51.400;5.494;2023-05-01T02:20:50;7.78;;;2.38;;
47896;SDS011;39629;51.400;5.494;2023-05-01T02:25:53;4.13;;;1.92;;
47896;SDS011;39629;51.400;5.494;2023-05-01T02:36:02;5.13;;;2.20;;
47896;SDS011;39629;51.400;5.494;2023-05-01T02:41:06;6.55;;;2.40;;
47896;SDS011;39629;51.400;5.494;2023-05-01T02:46:10;4.43;;;2.10;;
47896;SDS011;39629;51.400;5.494;2023-05-01T02:51:15;5.45;;;2.20;;
47896;SDS011;39629;51.400;5.494;2023-05-01T02:56:18;4.73;;;2.33;;
47896;SDS011;39629;51.400;5.494;2023-05-01T03:01:20;3.75;;;2.08;;
47896;SDS011;39629;51.400;5.494;2023-05-01T03:06:23;9.52;;;2.55;;
47896;SDS011;39629;51.400;5.494;2023-05-01T03:11:28;7.03;;;2.33;;
47896;SDS011;39629;51.400;5.494;2023-05-01T03:16:29;7.40;;;3.13;;
47896;SDS011;39629;51.400;5.494;2023-05-01T03:21:32;6.40;;;2.92;;
47896;SDS011;39629;51.400;5.494;2023-05-01T03:26:34;5.65;;;2.70;;
47896;SDS011;39629;51.400;5.494;2023-05-01T03:31:35;8.82;;;2.63;;
47896;SDS011;39629;51.400;5.494;2023-05-01T03:36:39;7.35;;;2.90;;
47896;SDS011;39629;51.400;5.494;2023-05-01T03:41:41;6.68;;;2.95;;
47896;SDS011;39629;51.400;5.494;2023-05-01T03:46:55;5.05;;;3.00;;
47896;SDS011;39629;51.400;5.494;2023-05-01T03:52:03;8.77;;;2.95;;
47896;SDS011;39629;51.400;5.494;2023-05-01T03:57:06;4.85;;;2.67;;
47896;SDS011;39629;51.400;5.494;2023-05-01T04:02:08;6.53;;;2.75;;
47896;SDS011;39629;51.400;5.494;2023-05-01T04:07:13;4.63;;;2.60;;
47896;SDS011;39629;51.400;5.494;2023-05-01T04:12:15;6.25;;;3.03;;
47896;SDS011;39629;51.400;5.494;2023-05-01T04:17:16;6.68;;;3.00;;
47896;SDS011;39629;51.400;5.494;2023-05-01T04:22:19;5.80;;;2.60;;
47896;SDS011;39629;51.400;5.494;2023-05-01T04:27:21;6.18;;;2.58;;
47896;SDS011;39629;51.400;5.494;2023-05-01T04:32:24;5.50;;;3.00;;
47896;SDS011;39629;51.400;5.494;2023-05-01T04:37:26;5.72;;;2.75;;
47896;SDS011;39629;51.400;5.494;2023-05-01T04:42:29;8.18;;;3.10;;
47896;SDS011;39629;51.400;5.494;2023-05-01T04:47:31;8.32;;;3.05;;
47896;SDS011;39629;51.400;5.494;2023-05-01T04:52:34;5.18;;;3.08;;
47896;SDS011;39629;51.400;5.494;2023-05-01T04:57:37;6.35;;;3.20;;
47896;SDS011;39629;51.400;5.494;2023-05-01T05:02:40;6.03;;;2.30;;
47896;SDS011;39629;51.400;5.494;2023-05-01T05:07:44;7.25;;;3.53;;
47896;SDS011;39629;51.400;5.494;2023-05-01T05:13:03;4.30;;;2.58;;
47896;SDS011;39629;51.400;5.494;2023-05-01T05:18:05;8.20;;;2.65;;
47896;SDS011;39629;51.400;5.494;2023-05-01T05:23:08;5.10;;;2.70;;
47896;SDS011;39629;51.400;5.494;2023-05-01T05:28:10;4.78;;;2.67;;
47896;SDS011;39629;51.400;5.494;2023-05-01T05:33:12;7.88;;;3.22;;
47896;SDS011;39629;51.400;5.494;2023-05-01T05:38:15;5.88;;;2.53;;
47896;SDS011;39629;51.400;5.494;2023-05-01T05:43:19;7.18;;;3.40;;
47896;SDS011;39629;51.400;5.494;2023-05-01T05:48:21;12.18;;;4.50;;
47896;SDS011;39629;51.400;5.494;2023-05-01T05:53:24;6.32;;;2.83;;
47896;SDS011;39629;51.400;5.494;2023-05-01T05:58:26;6.18;;;3.40;;
47896;SDS011;39629;51.400;5.494;2023-05-01T06:03:27;6.90;;;3.90;;
47896;SDS011;39629;51.400;5.494;2023-05-01T06:08:35;7.93;;;4.03;;
47896;SDS011;39629;51.400;5.494;2023-05-01T06:13:39;8.55;;;3.95;;
47896;SDS011;39629;51.400;5.494;2023-05-01T06:18:40;10.35;;;4.32;;
47896;SDS011;39629;51.400;5.494;2023-05-01T06:23:43;8.40;;;4.40;;
47896;SDS011;39629;51.400;5.494;2023-05-01T06:28:56;7.47;;;4.22;;
47896;SDS011;39629;51.400;5.494;2023-05-01T06:33:59;9.57;;;3.85;;
47896;SDS011;39629;51.400;5.494;2023-05-01T06:39:22;7.57;;;4.18;;
47896;SDS011;39629;51.400;5.494;2023-05-01T06:44:24;8.07;;;3.85;;
47896;SDS011;39629;51.400;5.494;2023-05-01T06:49:25;7.03;;;3.53;;
47896;SDS011;39629;51.400;5.494;2023-05-01T06:54:29;7.13;;;4.20;;
47896;SDS011;39629;51.400;5.494;2023-05-01T06:59:30;10.52;;;4.30;;
47896;SDS011;39629;51.400;5.494;2023-05-01T07:04:32;8.13;;;4.43;;
47896;SDS011;39629;51.400;5.494;2023-05-01T07:09:35;8.20;;;4.63;;
47896;SDS011;39629;51.400;5.494;2023-05-01T07:14:37;8.65;;;4.32;;
47896;SDS011;39629;51.400;5.494;2023-05-01T07:19:40;8.57;;;4.15;;
47896;SDS011;39629;51.400;5.494;2023-05-01T07:24:43;12.63;;;4.43;;
47896;SDS011;39629;51.400;5.494;2023-05-01T07:29:45;7.63;;;3.80;;
47896;SDS011;39629;51.400;5.494;2023-05-01T07:34:46;7.63;;;3.65;;
47896;SDS011;39629;51.400;5.494;2023-05-01T07:39:49;6.68;;;3.80;;
47896;SDS011;39629;51.400;5.494;2023-05-01T07:44:51;5.40;;;3.28;;
47896;SDS011;39629;51.400;5.494;2023-05-01T07:49:52;5.28;;;3.58;;
47896;SDS011;39629;51.400;5.494;2023-05-01T07:54:55;5.93;;;3.60;;
47896;SDS011;39629;51.400;5.494;2023-05-01T07:59:57;5.80;;;3.50;;
47896;SDS011;39629;51.400;5.494;2023-05-01T08:04:58;5.93;;;3.97;;
47896;SDS011;39629;51.400;5.494;2023-05-01T08:10:03;6.22;;;3.20;;
47896;SDS011;39629;51.400;5.494;2023-05-01T08:15:06;5.55;;;3.35;;
47896;SDS011;39629;51.400;5.494;2023-05-01T08:20:08;10.02;;;3.63;;
47896;SDS011;39629;51.400;5.494;2023-05-01T08:25:13;5.60;;;3.60;;
47896;SDS011;39629;51.400;5.494;2023-05-01T08:30:14;9.55;;;3.45;;
47896;SDS011;39629;51.400;5.494;2023-05-01T08:35:16;7.47;;;3.50;;
47896;SDS011;39629;51.400;5.494;2023-05-01T08:40:19;6.47;;;3.40;;
47896;SDS011;39629;51.400;5.494;2023-05-01T08:45:20;6.57;;;4.03;;
47896;SDS011;39629;51.400;5.494;2023-05-01T08:50:24;8.43;;;3.50;;
47896;SDS011;39629;51.400;5.494;2023-05-01T08:55:31;7.72;;;3.13;;
47896;SDS011;39629;51.400;5.494;2023-05-01T09:00:34;6.85;;;3.58;;
47896;SDS011;39629;51.400;5.494;2023-05-01T09:05:38;8.48;;;3.22;;
47896;SDS011;39629;51.400;5.494;2023-05-01T09:10:43;6.68;;;3.17;;
47896;SDS011;39629;51.400;5.494;2023-05-01T09:15:46;6.50;;;3.38;;
47896;SDS011;39629;51.400;5.494;2023-05-01T09:20:48;5.38;;;3.22;;
47896;SDS011;39629;51.400;5.494;2023-05-01T09:25:51;7.30;;;3.30;;
47896;SDS011;39629;51.400;5.494;2023-05-01T09:30:54;5.68;;;3.30;;
47896;SDS011;39629;51.400;5.494;2023-05-01T09:35:55;6.43;;;3.40;;
47896;SDS011;39629;51.400;5.494;2023-05-01T09:41:03;6.07;;;3.70;;
47896;SDS011;39629;51.400;5.494;2023-05-01T09:46:05;5.53;;;3.03;;
47896;SDS011;39629;51.400;5.494;2023-05-01T09:51:19;4.60;;;3.30;;
47896;SDS011;39629;51.400;5.494;2023-05-01T09:56:24;5.80;;;2.90;;
47896;SDS011;39629;51.400;5.494;2023-05-01T10:01:38;3.97;;;2.72;;
47896;SDS011;39629;51.400;5.494;2023-05-01T10:06:41;6.32;;;3.28;;
47896;SDS011;39629;51.400;5.494;2023-05-01T10:11:48;5.68;;;3.17;;
47896;SDS011;39629;51.400;5.494;2023-05-01T10:16:51;6.18;;;3.40;;
47896;SDS011;39629;51.400;5.494;2023-05-01T10:21:53;4.28;;;3.08;;
47896;SDS011;39629;51.400;5.494;2023-05-01T10:26:56;7.55;;;4.38;;
47896;SDS011;39629;51.400;5.494;2023-05-01T10:31:58;5.85;;;3.90;;
47896;SDS011;39629;51.400;5.494;2023-05-01T10:37:03;7.15;;;3.92;;
47896;SDS011;39629;51.400;5.494;2023-05-01T10:42:10;5.00;;;3.55;;
47896;SDS011;39629;51.400;5.494;2023-05-01T11:03:59;5.55;;;3.92;;
47896;SDS011;39629;51.400;5.494;2023-05-01T11:20:05;5.60;;;4.22;;
47896;SDS011;39629;51.400;5.494;2023-05-01T11:25:16;6.47;;;4.20;;
47896;SDS011;39629;51.400;5.494;2023-05-01T11:30:21;5.93;;;4.20;;
47896;SDS011;39629;51.400;5.494;2023-05-01T11:35:24;8.40;;;4.45;;
47896;SDS011;39629;51.400;5.494;2023-05-01T11:40:28;9.43;;;4.43;;
47896;SDS011;39629;51.400;5.494;2023-05-01T11:45:32;9.20;;;4.50;;
47896;SDS011;39629;51.400;5.494;2023-05-01T11:50:35;7.32;;;4.25;;
47896;SDS011;39629;51.400;5.494;2023-05-01T11:55:38;6.90;;;4.30;;
47896;SDS011;39629;51.400;5.494;2023-05-01T12:00:42;5.65;;;3.95;;
47896;SDS011;39629;51.400;5.494;2023-05-01T12:05:44;7.45;;;4.20;;
47896;SDS011;39629;51.400;5.494;2023-05-01T12:10:46;6.65;;;3.75;;
47896;SDS011;39629;51.400;5.494;2023-05-01T12:15:50;5.00;;;3.88;;
47896;SDS011;39629;51.400;5.494;2023-05-01T12:20:53;7.07;;;3.60;;
47896;SDS011;39629;51.400;5.494;2023-05-01T12:25:55;5.25;;;3.75;;
47896;SDS011;39629;51.400;5.494;2023-05-01T12:31:03;5.13;;;3.08;;
47896;SDS011;39629;51.400;5.494;2023-05-01T12:36:09;4.80;;;2.92;;
47896;SDS011;39629;51.400;5.494;2023-05-01T12:41:11;7.97;;;3.80;;
47896;SDS011;39629;51.400;5.494;2023-05-01T12:46:14;7.50;;;3.55;;
47896;SDS011;39629;51.400;5.494;2023-05-01T12:51:17;6.18;;;3.92;;
47896;SDS011;39629;51.400;5.494;2023-05-01T12:56:20;7.40;;;3.47;;
47896;SDS011;39629;51.400;5.494;2023-05-01T13:01:25;7.07;;;4.10;;
47896;SDS011;39629;51.400;5.494;2023-05-01T13:06:31;7.35;;;3.30;;
47896;SDS011;39629;51.400;5.494;2023-05-01T13:11:33;6.10;;;3.20;;
47896;SDS011;39629;51.400;5.494;2023-05-01T13:16:44;4.30;;;2.95;;
47896;SDS011;39629;51.400;5.494;2023-05-01T13:21:46;5.88;;;2.50;;
47896;SDS011;39629;51.400;5.494;2023-05-01T13:26:56;4.25;;;2.80;;
47896;SDS011;39629;51.400;5.494;2023-05-01T13:32:03;5.70;;;3.05;;
47896;SDS011;39629;51.400;5.494;2023-05-01T13:37:08;4.50;;;3.10;;
47896;SDS011;39629;51.400;5.494;2023-05-01T13:42:12;5.00;;;2.85;;
47896;SDS011;39629;51.400;5.494;2023-05-01T13:47:21;6.28;;;3.20;;
47896;SDS011;39629;51.400;5.494;2023-05-01T13:52:25;5.70;;;2.35;;
47896;SDS011;39629;51.400;5.494;2023-05-01T13:57:27;2.75;;;1.90;;
47896;SDS011;39629;51.400;5.494;2023-05-01T14:02:32;3.40;;;1.40;;
47896;SDS011;39629;51.400;5.494;2023-05-01T14:07:34;2.28;;;1.35;;
47896;SDS011;39629;51.400;5.494;2023-05-01T14:12:44;2.28;;;1.50;;
47896;SDS011;39629;51.400;5.494;2023-05-01T14:17:47;2.35;;;1.60;;
47896;SDS011;39629;51.400;5.494;2023-05-01T14:22:48;3.80;;;1.40;;
47896;SDS011;39629;51.400;5.494;2023-05-01T14:32:54;2.70;;;1.60;;
47896;SDS011;39629;51.400;5.494;2023-05-01T14:37:56;3.17;;;1.52;;
47896;SDS011;39629;51.400;5.494;2023-05-01T14:43:04;2.35;;;1.35;;
47896;SDS011;39629;51.400;5.494;2023-05-01T14:48:07;3.10;;;1.63;;
47896;SDS011;39629;51.400;5.494;2023-05-01T14:53:10;1.85;;;1.10;;
47896;SDS011;39629;51.400;5.494;2023-05-01T14:58:12;2.92;;;1.73;;
47896;SDS011;39629;51.400;5.494;2023-05-01T15:03:15;2.13;;;1.25;;
47896;SDS011;39629;51.400;5.494;2023-05-01T15:08:17;2.17;;;1.40;;
47896;SDS011;39629;51.400;5.494;2023-05-01T15:13:19;2.93;;;1.40;;
47896;SDS011;39629;51.400;5.494;2023-05-01T15:18:22;2.33;;;1.00;;
47896;SDS011;39629;51.400;5.494;2023-05-01T15:23:24;2.53;;;0.90;;
47896;SDS011;39629;51.400;5.494;2023-05-01T15:28:26;3.53;;;1.25;;
47896;SDS011;39629;51.400;5.494;2023-05-01T15:33:30;2.10;;;1.30;;
47896;SDS011;39629;51.400;5.494;2023-05-01T15:38:32;3.33;;;1.40;;
47896;SDS011;39629;51.400;5.494;2023-05-01T15:43:33;2.88;;;1.70;;
47896;SDS011;39629;51.400;5.494;2023-05-01T15:48:36;2.30;;;1.52;;
47896;SDS011;39629;51.400;5.494;2023-05-01T15:53:38;3.42;;;2.30;;
47896;SDS011;39629;51.400;5.494;2023-05-01T15:58:40;2.83;;;1.55;;
47896;SDS011;39629;51.400;5.494;2023-05-01T16:03:44;4.32;;;2.20;;
47896;SDS011;39629;51.400;5.494;2023-05-01T16:08:46;3.40;;;2.47;;
47896;SDS011;39629;51.400;5.494;2023-05-01T16:13:48;5.68;;;2.92;;
47896;SDS011;39629;51.400;5.494;2023-05-01T16:18:54;5.32;;;2.92;;
47896;SDS011;39629;51.400;5.494;2023-05-01T16:23:56;5.72;;;3.60;;
47896;SDS011;39629;51.400;5.494;2023-05-01T16:28:58;6.80;;;2.92;;
47896;SDS011;39629;51.400;5.494;2023-05-01T16:34:05;4.72;;;3.10;;
47896;SDS011;39629;51.400;5.494;2023-05-01T16:39:07;5.60;;;3.35;;
47896;SDS011;39629;51.400;5.494;2023-05-01T16:44:09;5.03;;;3.80;;
47896;SDS011;39629;51.400;5.494;2023-05-01T16:49:13;5.22;;;4.00;;
47896;SDS011;39629;51.400;5.494;2023-05-01T16:54:15;4.85;;;3.55;;
47896;SDS011;39629;51.400;5.494;2023-05-01T16:59:17;5.65;;;4.97;;
47896;SDS011;39629;51.400;5.494;2023-05-01T17:04:20;8.95;;;5.85;;
47896;SDS011;39629;51.400;5.494;2023-05-01T17:09:22;8.05;;;5.97;;
47896;SDS011;39629;51.400;5.494;2023-05-01T17:14:28;6.13;;;5.32;;
47896;SDS011;39629;51.400;5.494;2023-05-01T17:19:31;7.50;;;6.00;;
47896;SDS011;39629;51.400;5.494;2023-05-01T17:24:33;8.32;;;6.97;;
47896;SDS011;39629;51.400;5.494;2023-05-01T17:29:35;8.70;;;6.63;;
47896;SDS011;39629;51.400;5.494;2023-05-01T17:34:39;9.38;;;7.45;;
47896;SDS011;39629;51.400;5.494;2023-05-01T17:39:41;8.63;;;7.47;;
47896;SDS011;39629;51.400;5.494;2023-05-01T17:44:42;10.60;;;6.80;;
47896;SDS011;39629;51.400;5.494;2023-05-01T17:49:45;9.27;;;5.80;;
47896;SDS011;39629;51.400;5.494;2023-05-01T17:54:47;8.20;;;6.33;;
47896;SDS011;39629;51.400;5.494;2023-05-01T17:59:48;8.63;;;5.95;;
47896;SDS011;39629;51.400;5.494;2023-05-01T18:04:51;8.10;;;5.38;;
47896;SDS011;39629;51.400;5.494;2023-05-01T18:14:55;8.60;;;5.50;;
47896;SDS011;39629;51.400;5.494;2023-05-01T18:19:58;9.90;;;5.78;;
47896;SDS011;39629;51.400;5.494;2023-05-01T18:25:00;9.48;;;6.20;;
47896;SDS011;39629;51.400;5.494;2023-05-01T18:30:01;8.27;;;5.43;;
47896;SDS011;39629;51.400;5.494;2023-05-01T18:35:05;9.45;;;5.90;;
47896;SDS011;39629;51.400;5.494;2023-05-01T18:40:07;8.88;;;5.90;;
47896;SDS011;39629;51.400;5.494;2023-05-01T18:45:09;8.95;;;5.97;;
47896;SDS011;39629;51.400;5.494;2023-05-01T18:50:12;8.30;;;5.53;;
47896;SDS011;39629;51.400;5.494;2023-05-01T18:55:16;7.65;;;5.32;;
47896;SDS011;39629;51.400;5.494;2023-05-01T19:00:18;7.88;;;4.88;;
47896;SDS011;39629;51.400;5.494;2023-05-01T19:05:21;8.60;;;5.45;;
47896;SDS011;39629;51.400;5.494;2023-05-01T19:10:24;10.93;;;6.07;;
47896;SDS011;39629;51.400;5.494;2023-05-01T19:15:25;8.80;;;5.95;;
47896;SDS011;39629;51.400;5.494;2023-05-01T19:20:28;9.85;;;6.50;;
47896;SDS011;39629;51.400;5.494;2023-05-01T19:25:30;12.35;;;6.93;;
47896;SDS011;39629;51.400;5.494;2023-05-01T19:30:32;9.93;;;6.88;;
47896;SDS011;39629;51.400;5.494;2023-05-01T19:35:35;11.40;;;6.82;;
47896;SDS011;39629;51.400;5.494;2023-05-01T19:40:38;9.45;;;6.18;;
47896;SDS011;39629;51.400;5.494;2023-05-01T19:45:41;12.60;;;7.90;;
47896;SDS011;39629;51.400;5.494;2023-05-01T19:50:44;14.75;;;8.13;;
47896;SDS011;39629;51.400;5.494;2023-05-01T19:55:50;12.57;;;8.00;;
47896;SDS011;39629;51.400;5.494;2023-05-01T20:00:51;11.88;;;7.90;;
47896;SDS011;39629;51.400;5.494;2023-05-01T20:05:58;14.60;;;7.82;;
47896;SDS011;39629;51.400;5.494;2023-05-01T20:10:59;13.10;;;7.45;;
47896;SDS011;39629;51.400;5.494;2023-05-01T20:16:01;12.60;;;8.07;;
47896;SDS011;39629;51.400;5.494;2023-05-01T20:21:04;13.65;;;8.43;;
47896;SDS011;39629;51.400;5.494;2023-05-01T20:26:06;13.32;;;8.55;;
47896;SDS011;39629;51.400;5.494;2023-05-01T20:31:08;12.55;;;8.25;;
47896;SDS011;39629;51.400;5.494;2023-05-01T20:36:12;15.82;;;9.35;;
47896;SDS011;39629;51.400;5.494;2023-05-01T20:41:14;16.13;;;9.25;;
47896;SDS011;39629;51.400;5.494;2023-05-01T20:46:16;14.43;;;8.73;;
47896;SDS011;39629;51.400;5.494;2023-05-01T20:51:18;20.17;;;10.65;;
47896;SDS011;39629;51.400;5.494;2023-05-01T20:56:21;15.73;;;8.97;;
47896;SDS011;39629;51.400;5.494;2023-05-01T21:01:22;17.55;;;10.18;;
47896;SDS011;39629;51.400;5.494;2023-05-01T21:06:25;20.63;;;10.90;;
47896;SDS011;39629;51.400;5.494;2023-05-01T21:11:27;20.48;;;10.32;;
47896;SDS011;39629;51.400;5.494;2023-05-01T21:16:29;21.42;;;12.07;;
47896;SDS011;39629;51.400;5.494;2023-05-01T21:21:34;17.70;;;10.02;;
47896;SDS011;39629;51.400;5.494;2023-05-01T21:26:36;20.00;;;10.88;;
47896;SDS011;39629;51.400;5.494;2023-05-01T21:31:38;26.10;;;12.57;;
47896;SDS011;39629;51.400;5.494;2023-05-01T21:36:42;22.23;;;11.73;;
47896;SDS011;39629;51.400;5.494;2023-05-01T21:41:45;24.67;;;13.55;;
47896;SDS011;39629;51.400;5.494;2023-05-01T21:46:48;23.88;;;12.63;;
47896;SDS011;39629;51.400;5.494;2023-05-01T21:51:52;24.42;;;13.05;;
47896;SDS011;39629;51.400;5.494;2023-05-01T21:56:59;26.45;;;12.43;;
47896;SDS011;39629;51.400;5.494;2023-05-01T22:02:03;24.33;;;12.00;;
47896;SDS011;39629;51.400;5.494;2023-05-01T22:07:07;19.50;;;10.38;;
47896;SDS011;39629;51.400;5.494;2023-05-01T22:12:08;30.77;;;15.15;;
47896;SDS011;39629;51.400;5.494;2023-05-01T22:17:10;28.73;;;13.57;;
47896;SDS011;39629;51.400;5.494;2023-05-01T22:22:13;34.67;;;17.13;;
47896;SDS011;39629;51.400;5.494;2023-05-01T22:27:14;27.60;;;14.60;;
47896;SDS011;39629;51.400;5.494;2023-05-01T22:32:16;28.60;;;14.40;;
47896;SDS011;39629;51.400;5.494;2023-05-01T22:37:19;30.55;;;14.93;;
47896;SDS011;39629;51.400;5.494;2023-05-01T22:42:21;32.10;;;15.65;;
47896;SDS011;39629;51.400;5.494;2023-05-01T22:47:23;29.08;;;14.23;;
47896;SDS011;39629;51.400;5.494;2023-05-01T22:52:26;31.67;;;14.82;;
47896;SDS011;39629;51.400;5.494;2023-05-01T22:57:27;29.83;;;12.43;;
47896;SDS011;39629;51.400;5.494;2023-05-01T23:02:29;28.27;;;11.70;;
47896;SDS011;39629;51.400;5.494;2023-05-01T23:07:32;24.33;;;11.30;;
47896;SDS011;39629;51.400;5.494;2023-05-01T23:12:33;22.65;;;10.52;;
47896;SDS011;39629;51.400;5.494;2023-05-01T23:17:35;25.00;;;11.90;;
47896;SDS011;39629;51.400;5.494;2023-05-01T23:22:38;24.73;;;10.82;;
47896;SDS011;39629;51.400;5.494;2023-05-01T23:27:40;29.65;;;12.57;;
47896;SDS011;39629;51.400;5.494;2023-05-01T23:32:43;28.15;;;12.52;;
47896;SDS011;39629;51.400;5.494;2023-05-01T23:37:46;28.90;;;12.40;;
47896;SDS011;39629;51.400;5.494;2023-05-01T23:42:48;28.23;;;12.30;;
47896;SDS011;39629;51.400;5.494;2023-05-01T23:47:50;26.88;;;12.20;;
47896;SDS011;39629;51.400;5.494;2023-05-01T23:52:53;25.50;;;10.88;;
47896;SDS011;39629;51.400;5.494;2023-05-01T23:57:55;24.27;;;9.90;;
